Time;durP1;ratioP1;P1;durP2;ratioP2;P2;SDS_P1;SDS_P2;PMS_P1;PMS_P2;Temp;Humidity;BMP_temperature;BMP_pressure;BME280_temperature;BME280_humidity;BME280_pressure;Samples;Min_cycle;Max_cycle;Signal;HPM_P1;HPM_P2
2023/03/23 00:01:20;;;;;;;;;;;;;;;13.93;100.00;97403.59;5128731;27;19926;-65
2023/03/23 00:03:46;;;;;;;;;;;;;;;14.07;100.00;97409.00;5120233;28;20653;-64
2023/03/23 00:06:17;;;;;;;;;;;;;;;14.13;100.00;97413.16;5121827;28;19924;-64
2023/03/23 00:08:45;;;;;;;;;;;;;;;14.09;100.00;97406.78;5123840;28;19923;-65
2023/03/23 00:11:14;;;;;;;;;;;;;;;14.11;100.00;97411.88;5122310;28;19930;-64
2023/03/23 00:13:41;;;;;;;;;;;;;;;13.89;100.00;97397.25;5120106;28;19924;-65
2023/03/23 00:16:17;;;;;;;;;;;;;;;13.52;100.00;97400.06;5128549;28;19931;-65
2023/03/23 00:18:46;;;;;;;;;;;;;;;13.37;100.00;97400.28;5120047;28;19978;-65
2023/03/23 00:21:13;;;;;;;;;;;;;;;13.42;100.00;97406.38;5103320;28;19954;-64
2023/03/23 00:23:39;;;;;;;;;;;;;;;12.94;100.00;97396.88;5123735;28;19987;-64
2023/03/23 00:26:06;;;;;;;;;;;;;;;13.26;100.00;97398.84;5123211;28;20571;-65
2023/03/23 00:28:33;;;;;;;;;;;;;;;13.22;100.00;97403.19;5120206;28;19946;-63
2023/03/23 00:31:00;;;;;;;;;;;;;;;13.55;100.00;97401.34;5119832;28;19925;-63
2023/03/23 00:33:28;;;;;;;;;;;;;;;13.63;100.00;97404.16;5119788;28;19924;-64
2023/03/23 00:35:56;;;;;;;;;;;;;;;13.78;100.00;97406.56;5119932;28;19931;-65
2023/03/23 00:38:23;;;;;;;;;;;;;;;13.87;100.00;97399.41;5122600;28;19924;-64
2023/03/23 00:40:49;;;;;;;;;;;;;;;13.35;100.00;97389.06;5122556;28;19967;-64
2023/03/23 00:43:16;;;;;;;;;;;;;;;13.34;100.00;97392.81;5121257;28;20030;-65
2023/03/23 00:45:44;;;;;;;;;;;;;;;13.61;100.00;97394.81;5101545;28;19924;-64
2023/03/23 00:48:12;;;;;;;;;;;;;;;13.30;100.00;97389.94;5120709;28;19935;-64
2023/03/23 00:50:38;;;;;;;;;;;;;;;13.11;100.00;97389.16;5123121;28;19935;-64
2023/03/23 00:53:06;;;;;;;;;;;;;;;13.15;100.00;97384.78;5122684;28;20042;-64
2023/03/23 00:55:33;;;;;;;;;;;;;;;13.45;100.00;97378.16;5119523;28;19955;-64
2023/03/23 00:58:00;;;;;;;;;;;;;;;13.31;100.00;97388.84;5119258;28;19946;-64
2023/03/23 01:00:26;;;;;;;;;;;;;;;13.11;100.00;97380.31;5129623;27;20031;-64
2023/03/23 01:02:53;;;;;;;;;;;;;;;12.52;100.00;97389.72;5122650;28;19924;-65
2023/03/23 01:05:20;;;;;;;;;;;;;;;12.75;100.00;97380.81;5120456;28;19975;-64
2023/03/23 01:07:46;;;;;;;;;;;;;;;12.45;100.00;97391.94;5119154;28;19924;-64
2023/03/23 01:10:17;;;;;;;;;;;;;;;12.28;100.00;97389.75;5120575;28;19960;-64
2023/03/23 01:12:44;;;;;;;;;;;;;;;12.49;100.00;97387.59;5122618;28;19957;-64
2023/03/23 01:15:14;;;;;;;;;;;;;;;12.62;100.00;97380.75;5121383;28;19931;-64
2023/03/23 01:17:40;;;;;;;;;;;;;;;12.60;100.00;97383.69;5119138;28;19924;-64
2023/03/23 01:20:07;;;;;;;;;;;;;;;12.88;100.00;97377.41;5101201;28;19980;-64
2023/03/23 01:22:34;;;;;;;;;;;;;;;12.99;100.00;97383.44;5122628;28;19963;-64
2023/03/23 01:25:00;;;;;;;;;;;;;;;12.60;100.00;97364.94;5122415;28;19983;-64
2023/03/23 01:27:28;;;;;;;;;;;;;;;12.78;100.00;97374.09;5119114;28;19927;-64
2023/03/23 01:29:54;;;;;;;;;;;;;;;11.90;100.00;97362.06;5121167;28;19931;-63
2023/03/23 01:32:20;;;;;;;;;;;;;;;12.18;100.00;97373.78;5113747;28;19935;-63
2023/03/23 01:34:47;;;;;;;;;;;;;;;11.96;100.00;97370.03;5122231;28;19931;-63
2023/03/23 01:37:15;;;;;;;;;;;;;;;12.13;100.00;97373.06;5120562;28;19924;-64
2023/03/23 01:39:41;;;;;;;;;;;;;;;12.25;100.00;97365.41;5118590;28;19924;-63
2023/03/23 01:42:08;;;;;;;;;;;;;;;12.06;100.00;97359.22;5119003;28;19949;-63
2023/03/23 01:44:54;;;;;;;;;;;;;;;11.93;100.00;97363.38;5122022;28;19935;-63
2023/03/23 01:47:26;;;;;;;;;;;;;;;12.29;100.00;97363.75;5119492;28;19953;-64
2023/03/23 01:49:53;;;;;;;;;;;;;;;12.13;100.00;97362.34;5118193;28;19919;-63
2023/03/23 01:52:21;;;;;;;;;;;;;;;11.86;100.00;97354.88;5120154;28;19936;-64
2023/03/23 01:54:49;;;;;;;;;;;;;;;11.68;100.00;97360.94;5121271;28;20037;-64
2023/03/23 01:57:17;;;;;;;;;;;;;;;11.56;100.00;97366.66;5119945;28;19970;-64
2023/03/23 01:59:45;;;;;;;;;;;;;;;11.52;100.00;97349.59;5118971;28;19924;-64
2023/03/23 02:02:12;;;;;;;;;;;;;;;11.32;100.00;97357.81;5113132;28;19924;-64
2023/03/23 02:04:41;;;;;;;;;;;;;;;11.26;100.00;97351.69;5121685;28;19928;-63
2023/03/23 02:07:07;;;;;;;;;;;;;;;11.07;100.00;97347.31;5120752;28;19953;-63
2023/03/23 02:09:34;;;;;;;;;;;;;;;11.05;100.00;97357.50;5118007;28;19969;-63
2023/03/23 02:12:00;;;;;;;;;;;;;;;11.10;100.00;97363.59;5118106;28;20473;-64
2023/03/23 02:14:29;;;;;;;;;;;;;;;11.12;100.00;97371.31;5121297;28;19983;-64
2023/03/23 02:16:59;;;;;;;;;;;;;;;11.30;100.00;97374.09;5121383;28;19943;-65
2023/03/23 02:19:36;;;;;;;;;;;;;;;11.11;100.00;97364.41;5118270;28;19979;-63
2023/03/23 02:22:17;;;;;;;;;;;;;;;10.88;100.00;97368.56;5117744;28;19963;-64
2023/03/23 02:24:52;;;;;;;;;;;;;;;11.30;100.00;97367.97;5109386;28;19959;-64
2023/03/23 02:27:28;;;;;;;;;;;;;;;11.15;100.00;97362.75;5109241;28;20408;-64
2023/03/23 02:29:59;;;;;;;;;;;;;;;11.09;100.00;97362.00;5101677;28;19920;-64
2023/03/23 02:32:40;;;;;;;;;;;;;;;11.22;100.00;97368.56;5112658;28;19955;-64
2023/03/23 02:35:10;;;;;;;;;;;;;;;11.53;100.00;97363.75;5117790;28;19966;-64
2023/03/23 02:37:39;;;;;;;;;;;;;;;11.32;100.00;97368.50;5117698;28;19924;-63
2023/03/23 02:40:09;;;;;;;;;;;;;;;11.46;100.00;97371.31;5117683;28;19992;-63
2023/03/23 02:42:39;;;;;;;;;;;;;;;11.23;100.00;97373.63;5137134;28;19932;-64
2023/03/23 02:45:07;;;;;;;;;;;;;;;11.21;100.00;97364.28;5120844;28;19928;-63
2023/03/23 02:47:36;;;;;;;;;;;;;;;11.09;100.00;97366.53;5117658;28;19924;-63
2023/03/23 02:50:03;;;;;;;;;;;;;;;10.82;100.00;97377.69;5117790;28;19939;-63
2023/03/23 02:52:33;;;;;;;;;;;;;;;11.11;100.00;97364.41;5117712;28;19920;-64
2023/03/23 02:55:01;;;;;;;;;;;;;;;11.03;100.00;97365.78;5117566;28;19955;-64
2023/03/23 02:57:28;;;;;;;;;;;;;;;10.84;100.00;97362.16;5121320;28;19944;-64
2023/03/23 02:59:54;;;;;;;;;;;;;;;10.99;100.00;97371.94;5121196;28;19923;-65
2023/03/23 03:02:24;;;;;;;;;;;;;;;10.69;100.00;97373.75;5112805;28;19927;-65
2023/03/23 03:04:54;;;;;;;;;;;;;;;10.81;100.00;97371.53;5123072;28;19934;-65
2023/03/23 03:07:28;;;;;;;;;;;;;;;10.99;100.00;97369.28;5122622;28;19924;-64
2023/03/23 03:09:57;;;;;;;;;;;;;;;10.84;100.00;97372.84;5121461;28;20606;-64
2023/03/23 03:12:31;;;;;;;;;;;;;;;11.00;100.00;97365.53;5124417;28;19928;-65
2023/03/23 03:15:03;;;;;;;;;;;;;;;11.31;100.00;97364.22;5124755;28;19923;-67
2023/03/23 03:17:31;;;;;;;;;;;;;;;11.25;100.00;97357.31;5125024;28;19919;-65
2023/03/23 03:19:59;;;;;;;;;;;;;;;11.26;100.00;97369.63;5117122;28;19920;-65
2023/03/23 03:22:29;;;;;;;;;;;;;;;11.71;100.00;97361.19;5124629;28;20021;-65
2023/03/23 03:24:58;;;;;;;;;;;;;;;11.68;100.00;97361.72;5124689;28;19923;-64
2023/03/23 03:27:26;;;;;;;;;;;;;;;11.68;100.00;97369.75;5121997;28;19924;-65
2023/03/23 03:29:56;;;;;;;;;;;;;;;11.88;100.00;97369.56;5123352;28;19924;-64
2023/03/23 03:32:26;;;;;;;;;;;;;;;11.89;100.00;97365.81;5116204;28;20311;-64
2023/03/23 03:34:52;;;;;;;;;;;;;;;12.47;100.00;97372.91;5124764;28;19944;-64
2023/03/23 03:37:20;;;;;;;;;;;;;;;12.42;100.00;97363.03;5122405;28;19923;-64
2023/03/23 03:39:47;;;;;;;;;;;;;;;11.99;100.00;97377.50;5120750;28;19950;-64
2023/03/23 03:42:14;;;;;;;;;;;;;;;12.18;100.00;97381.03;5122223;28;19924;-64
2023/03/23 03:44:41;;;;;;;;;;;;;;;11.60;100.00;97378.41;5124451;28;19963;-65
2023/03/23 03:47:08;;;;;;;;;;;;;;;11.77;100.00;97369.97;5123715;28;19970;-63
2023/03/23 03:49:35;;;;;;;;;;;;;;;11.58;100.00;97372.53;5120971;28;19921;-64
2023/03/23 03:52:02;;;;;;;;;;;;;;;11.09;100.00;97372.69;5120851;28;20281;-65
2023/03/23 03:54:28;;;;;;;;;;;;;;;10.82;100.00;97375.81;5128437;28;19930;-65
2023/03/23 03:56:57;;;;;;;;;;;;;;;11.10;100.00;97368.13;5120630;28;19955;-65
2023/03/23 03:59:27;;;;;;;;;;;;;;;10.82;100.00;97367.81;5123556;28;20011;-64
2023/03/23 04:01:54;;;;;;;;;;;;;;;10.62;100.00;97375.13;5117005;28;19953;-64
2023/03/23 04:04:21;;;;;;;;;;;;;;;10.46;100.00;97377.06;5123046;28;19934;-64
2023/03/23 04:06:48;;;;;;;;;;;;;;;10.22;100.00;97368.13;5124038;28;19924;-64
2023/03/23 04:09:15;;;;;;;;;;;;;;;10.14;100.00;97372.16;5122434;28;19924;-64
2023/03/23 04:11:42;;;;;;;;;;;;;;;9.96;100.00;97371.94;5102566;28;19939;-64
2023/03/23 04:14:08;;;;;;;;;;;;;;;10.05;100.00;97373.78;5120851;28;19924;-65
2023/03/23 04:16:37;;;;;;;;;;;;;;;10.12;100.00;97376.94;5123176;28;19946;-64
2023/03/23 04:19:05;;;;;;;;;;;;;;;10.20;100.00;97375.59;5105483;28;19994;-64
2023/03/23 04:21:31;;;;;;;;;;;;;;;10.53;100.00;97380.25;5120326;28;19927;-64
2023/03/23 04:23:58;;;;;;;;;;;;;;;10.67;100.00;97389.28;5119885;28;19947;-64
2023/03/23 04:26:25;;;;;;;;;;;;;;;10.96;100.00;97392.00;5122806;28;19923;-64
2023/03/23 04:28:51;;;;;;;;;;;;;;;10.94;100.00;97380.81;5123244;28;19924;-64
2023/03/23 04:31:18;;;;;;;;;;;;;;;10.80;100.00;97377.94;5116187;28;19931;-64
2023/03/23 04:33:46;;;;;;;;;;;;;;;11.45;100.00;97365.16;5119704;28;19991;-63
2023/03/23 04:36:15;;;;;;;;;;;;;;;11.34;100.00;97374.34;5120816;28;20499;-63
2023/03/23 04:38:42;;;;;;;;;;;;;;;11.02;100.00;97374.06;5123127;28;19931;-64
2023/03/23 04:41:09;;;;;;;;;;;;;;;10.47;100.00;97368.00;5121801;28;20410;-63
2023/03/23 04:43:41;;;;;;;;;;;;;;;10.38;100.00;97361.66;5119335;28;19987;-63
2023/03/23 04:46:08;;;;;;;;;;;;;;;10.24;100.00;97363.31;5101433;28;19924;-64
2023/03/23 04:48:35;;;;;;;;;;;;;;;10.11;100.00;97347.88;5122648;28;19924;-63
2023/03/23 04:51:03;;;;;;;;;;;;;;;10.45;100.00;97364.00;5122644;28;19928;-64
2023/03/23 04:53:30;;;;;;;;;;;;;;;10.04;100.00;97363.34;5119258;28;19955;-63
2023/03/23 04:55:56;;;;;;;;;;;;;;;10.19;100.00;97364.13;5119189;28;19955;-64
2023/03/23 04:58:24;;;;;;;;;;;;;;;10.24;100.00;97360.66;5121932;28;19920;-64
2023/03/23 05:00:50;;;;;;;;;;;;;;;10.47;100.00;97373.34;5119430;28;19931;-64
2023/03/23 05:03:17;;;;;;;;;;;;;;;11.68;100.00;97391.16;5118958;28;19963;-64
2023/03/23 05:05:46;;;;;;;;;;;;;;;11.39;100.00;97376.97;5118953;28;19931;-64
2023/03/23 05:08:14;;;;;;;;;;;;;;;10.76;100.00;97382.25;5120243;28;19950;-64
2023/03/23 05:10:41;;;;;;;;;;;;;;;11.02;100.00;97371.38;5122653;28;19924;-64
2023/03/23 05:13:07;;;;;;;;;;;;;;;10.37;100.00;97365.38;5121664;28;19927;-65
2023/03/23 05:15:34;;;;;;;;;;;;;;;10.55;100.00;97367.41;5118870;28;19980;-65
2023/03/23 05:18:00;;;;;;;;;;;;;;;10.80;100.00;97375.28;5118635;28;19954;-65
2023/03/23 05:20:27;;;;;;;;;;;;;;;10.68;100.00;97377.50;5122186;28;20033;-65
2023/03/23 05:22:56;;;;;;;;;;;;;;;10.34;100.00;97386.50;5122378;28;19945;-65
2023/03/23 05:25:24;;;;;;;;;;;;;;;10.17;100.00;97374.28;5119492;28;19923;-65
2023/03/23 05:27:52;;;;;;;;;;;;;;;10.05;100.00;97378.31;5118669;28;19928;-64
2023/03/23 05:30:19;;;;;;;;;;;;;;;9.96;100.00;97375.41;5122115;28;19924;-64
2023/03/23 05:32:50;;;;;;;;;;;;;;;10.05;100.00;97379.09;5116175;28;19920;-64
2023/03/23 05:35:17;;;;;;;;;;;;;;;9.93;100.00;97381.28;5119532;28;19924;-65
2023/03/23 05:37:44;;;;;;;;;;;;;;;9.95;100.00;97373.00;5117739;28;19951;-64
2023/03/23 05:40:11;;;;;;;;;;;;;;;10.05;100.00;97379.09;5118434;28;20086;-64
2023/03/23 05:42:40;;;;;;;;;;;;;;;9.95;100.00;97375.66;5121277;28;19951;-64
2023/03/23 05:45:08;;;;;;;;;;;;;;;9.79;100.00;97372.25;5102201;28;19932;-64
2023/03/23 05:47:35;;;;;;;;;;;;;;;9.89;100.00;97388.22;5117536;28;19928;-64
2023/03/23 05:50:02;;;;;;;;;;;;;;;9.75;100.00;97385.31;5118114;28;19997;-64
2023/03/23 05:52:28;;;;;;;;;;;;;;;9.63;100.00;97382.13;5121503;28;19928;-64
2023/03/23 05:54:54;;;;;;;;;;;;;;;9.69;100.00;97373.06;5121482;28;19930;-64
2023/03/23 05:57:22;;;;;;;;;;;;;;;9.83;100.00;97369.84;5119240;28;19924;-64
2023/03/23 05:59:50;;;;;;;;;;;;;;;9.64;100.00;97373.06;5120825;28;19930;-64
2023/03/23 06:02:16;;;;;;;;;;;;;;;9.61;100.00;97384.28;5123408;27;19935;-64
2023/03/23 06:04:43;;;;;;;;;;;;;;;9.47;100.00;97372.56;5121460;28;19959;-64
2023/03/23 06:07:12;;;;;;;;;;;;;;;9.51;100.00;97370.97;5102431;28;19946;-64
2023/03/23 06:09:38;;;;;;;;;;;;;;;9.47;100.00;97367.22;5117979;28;19928;-64
2023/03/23 06:12:05;;;;;;;;;;;;;;;9.74;100.00;97369.59;5117908;28;19984;-64
2023/03/23 06:14:32;;;;;;;;;;;;;;;9.80;100.00;97370.38;5121325;28;19946;-64
2023/03/23 06:17:00;;;;;;;;;;;;;;;9.71;100.00;97362.94;5121132;28;19923;-63
2023/03/23 06:19:27;;;;;;;;;;;;;;;9.72;100.00;97369.03;5118190;28;19963;-64
2023/03/23 06:21:53;;;;;;;;;;;;;;;9.81;100.00;97369.31;5117518;28;19931;-64
2023/03/23 06:24:19;;;;;;;;;;;;;;;9.79;100.00;97366.91;5119812;28;19991;-64
2023/03/23 06:26:46;;;;;;;;;;;;;;;9.93;100.00;97375.16;5121229;28;19924;-65
2023/03/23 06:29:12;;;;;;;;;;;;;;;9.96;100.00;97361.25;5119932;28;19924;-64
2023/03/23 06:31:40;;;;;;;;;;;;;;;9.92;100.00;97360.19;5113028;28;19928;-64
2023/03/23 06:34:08;;;;;;;;;;;;;;;9.89;100.00;97364.22;5099911;28;19928;-64
2023/03/23 06:36:34;;;;;;;;;;;;;;;9.87;100.00;97369.03;5103323;28;19920;-64
2023/03/23 06:39:04;;;;;;;;;;;;;;;9.80;100.00;97365.03;5121583;28;19935;-64
2023/03/23 06:41:30;;;;;;;;;;;;;;;10.02;100.00;97362.84;5117141;28;19920;-63
2023/03/23 06:43:56;;;;;;;;;;;;;;;9.99;100.00;97358.06;5125552;28;19943;-64
2023/03/23 06:46:23;;;;;;;;;;;;;;;9.98;100.00;97361.78;5122780;28;19924;-63
2023/03/23 06:48:50;;;;;;;;;;;;;;;9.93;100.00;97364.47;5121840;28;19952;-63
2023/03/23 06:51:17;;;;;;;;;;;;;;;9.93;100.00;97364.47;5123699;28;19993;-65
2023/03/23 06:53:44;;;;;;;;;;;;;;;9.91;100.00;97363.94;5107306;28;19990;-64
2023/03/23 06:56:11;;;;;;;;;;;;;;;9.99;100.00;97360.72;5124216;28;19985;-64
2023/03/23 06:58:37;;;;;;;;;;;;;;;10.09;100.00;97358.78;5121750;28;19979;-64
2023/03/23 07:01:04;;;;;;;;;;;;;;;10.16;100.00;97354.00;5133370;27;19924;-64
2023/03/23 07:03:31;;;;;;;;;;;;;;;10.05;100.00;97362.31;5121401;28;19989;-64
2023/03/23 07:05:58;;;;;;;;;;;;;;;10.12;100.00;97362.81;5121305;28;19928;-63
2023/03/23 07:08:26;;;;;;;;;;;;;;;10.19;100.00;97363.31;5124007;28;19989;-63
2023/03/23 07:10:53;;;;;;;;;;;;;;;10.28;100.00;97364.34;5124687;28;19924;-63
2023/03/23 07:13:20;;;;;;;;;;;;;;;10.21;100.00;97359.31;5122656;28;19924;-63
2023/03/23 07:15:47;;;;;;;;;;;;;;;10.31;100.00;97369.16;5121280;28;19955;-64
2023/03/23 07:18:13;;;;;;;;;;;;;;;10.37;100.00;97356.59;5122459;28;19924;-64
2023/03/23 07:20:39;;;;;;;;;;;;;;;10.44;100.00;97357.88;5124599;28;19958;-65
2023/03/23 07:23:06;;;;;;;;;;;;;;;10.54;100.00;97365.03;5124256;28;19924;-64
2023/03/23 07:25:33;;;;;;;;;;;;;;;10.55;100.00;97369.31;5121071;28;19924;-64
2023/03/23 07:28:00;;;;;;;;;;;;;;;10.56;100.00;97368.22;5120999;28;19920;-64
2023/03/23 07:30:28;;;;;;;;;;;;;;;10.61;100.00;97369.00;5124510;28;19992;-63
2023/03/23 07:32:55;;;;;;;;;;;;;;;10.68;100.00;97366.81;5101513;28;19920;-64
2023/03/23 07:35:21;;;;;;;;;;;;;;;10.81;100.00;97374.22;5122182;28;19955;-65
2023/03/23 07:37:48;;;;;;;;;;;;;;;10.86;100.00;97370.72;5121077;28;19928;-64
2023/03/23 07:40:15;;;;;;;;;;;;;;;10.79;100.00;97378.25;5122072;28;19928;-64
2023/03/23 07:42:43;;;;;;;;;;;;;;;10.82;100.00;97383.03;5124468;28;19923;-64
2023/03/23 07:45:11;;;;;;;;;;;;;;;10.78;100.00;97373.97;5123224;28;19928;-64
2023/03/23 07:47:37;;;;;;;;;;;;;;;10.72;100.00;97365.19;5120849;28;20591;-64
2023/03/23 07:50:04;;;;;;;;;;;;;;;10.71;100.00;97368.13;5120359;28;19935;-63
2023/03/23 07:52:31;;;;;;;;;;;;;;;10.70;100.00;97375.38;5119893;28;19927;-63
2023/03/23 07:54:57;;;;;;;;;;;;;;;10.81;100.00;97386.75;5120715;28;19932;-64
2023/03/23 07:57:24;;;;;;;;;;;;;;;10.86;100.00;97378.75;5123592;28;19924;-63
2023/03/23 07:59:51;;;;;;;;;;;;;;;10.93;100.00;97386.41;5125632;27;19924;-63
2023/03/23 08:02:18;;;;;;;;;;;;;;;10.94;100.00;97385.34;5125487;27;19934;-64
2023/03/23 08:04:44;;;;;;;;;;;;;;;10.95;100.00;97386.97;5123960;28;19920;-64
2023/03/23 08:07:12;;;;;;;;;;;;;;;11.03;100.00;97392.50;5122940;28;19942;-64
2023/03/23 08:09:38;;;;;;;;;;;;;;;11.06;100.00;97383.13;5120386;28;19924;-64
2023/03/23 08:12:05;;;;;;;;;;;;;;;11.03;100.00;97384.47;5120219;28;19996;-64
2023/03/23 08:14:32;;;;;;;;;;;;;;;11.09;100.00;97377.22;5123751;28;19927;-65
2023/03/23 08:17:00;;;;;;;;;;;;;;;11.11;100.00;97381.22;5123751;28;19930;-64
2023/03/23 08:19:26;;;;;;;;;;;;;;;11.17;100.00;97390.00;5120699;28;19924;-64
2023/03/23 08:21:53;;;;;;;;;;;;;;;11.22;100.00;97398.78;5120194;28;19995;-64
2023/03/23 08:24:19;;;;;;;;;;;;;;;11.29;100.00;97409.16;5122188;28;19924;-64
2023/03/23 08:26:46;;;;;;;;;;;;;;;11.32;100.00;97405.91;5123654;28;19946;-64
2023/03/23 08:29:12;;;;;;;;;;;;;;;11.42;100.00;97413.84;5122141;28;19920;-64
2023/03/23 08:31:39;;;;;;;;;;;;;;;11.39;100.00;97414.41;5115012;28;19924;-64
2023/03/23 08:34:07;;;;;;;;;;;;;;;11.36;100.00;97402.41;5119955;28;19971;-65
2023/03/23 08:36:34;;;;;;;;;;;;;;;11.34;100.00;97401.88;5123322;28;19947;-65
2023/03/23 08:39:00;;;;;;;;;;;;;;;11.35;100.00;97397.34;5123186;28;19958;-65
2023/03/23 08:41:27;;;;;;;;;;;;;;;11.42;100.00;97391.69;5119898;28;20038;-65
2023/03/23 08:43:53;;;;;;;;;;;;;;;11.50;100.00;97397.22;5119653;28;19973;-65
2023/03/23 08:46:20;;;;;;;;;;;;;;;11.61;100.00;97405.91;5121718;28;19991;-65
2023/03/23 08:48:46;;;;;;;;;;;;;;;11.66;100.00;97389.84;5122895;28;20000;-63
2023/03/23 08:51:15;;;;;;;;;;;;;;;11.64;100.00;97400.00;5121704;28;19982;-63
2023/03/23 08:53:42;;;;;;;;;;;;;;;11.68;100.00;97398.38;5101485;28;19928;-64
2023/03/23 08:56:09;;;;;;;;;;;;;;;11.72;100.00;97397.56;5119776;28;19928;-63
2023/03/23 08:58:36;;;;;;;;;;;;;;;11.80;100.00;97399.63;5122762;28;20483;-64
2023/03/23 09:01:03;;;;;;;;;;;;;;;11.86;100.00;97400.38;5118192;28;19942;-64
2023/03/23 09:03:30;;;;;;;;;;;;;;;11.96;100.00;97412.84;5118978;28;19919;-64
2023/03/23 09:05:59;;;;;;;;;;;;;;;12.05;100.00;97409.25;5119067;28;19924;-64
2023/03/23 09:08:28;;;;;;;;;;;;;;;12.11;100.00;97421.50;5104408;28;19970;-64
2023/03/23 09:10:55;;;;;;;;;;;;;;;12.15;100.00;97419.06;5122797;28;19920;-64
2023/03/23 09:13:21;;;;;;;;;;;;;;;12.19;100.00;97414.75;5120482;28;20041;-64
2023/03/23 09:15:49;;;;;;;;;;;;;;;12.26;100.00;97418.66;5119072;28;19966;-64
2023/03/23 09:18:15;;;;;;;;;;;;;;;12.29;100.00;97422.66;5120673;28;19936;-64
2023/03/23 09:20:41;;;;;;;;;;;;;;;12.41;100.00;97417.69;5122585;28;19959;-64
2023/03/23 09:23:08;;;;;;;;;;;;;;;12.45;100.00;97421.38;5121846;28;19963;-64
2023/03/23 09:25:36;;;;;;;;;;;;;;;12.50;100.00;97413.31;5119055;28;19958;-64
2023/03/23 09:28:03;;;;;;;;;;;;;;;12.58;100.00;97407.31;5119035;28;20064;-64
2023/03/23 09:30:30;;;;;;;;;;;;;;;12.67;100.00;97410.13;5122330;28;20022;-64
2023/03/23 09:32:57;;;;;;;;;;;;;;;12.77;100.00;97413.47;5117725;28;20363;-64
2023/03/23 09:35:24;;;;;;;;;;;;;;;12.74;100.00;97408.69;5119496;28;19959;-64
2023/03/23 09:37:52;;;;;;;;;;;;;;;12.80;100.00;97406.75;5118643;28;19924;-64
2023/03/23 09:40:20;;;;;;;;;;;;;;;12.83;100.00;97403.47;5120494;28;19948;-64
2023/03/23 09:42:54;;;;;;;;;;;;;;;12.85;100.00;97395.94;5122123;28;19931;-64
2023/03/23 09:45:25;;;;;;;;;;;;;;;12.90;100.00;97396.66;5119637;28;20407;-64
2023/03/23 09:48:01;;;;;;;;;;;;;;;13.00;100.00;97393.84;5118426;28;19932;-64
2023/03/23 09:50:32;;;;;;;;;;;;;;;13.04;100.00;97398.63;5121785;28;19961;-64
2023/03/23 09:52:59;;;;;;;;;;;;;;;13.13;100.00;97410.31;5122018;28;19924;-64
2023/03/23 09:55:28;;;;;;;;;;;;;;;13.12;100.00;97408.72;5118901;28;19951;-64
2023/03/23 09:57:58;;;;;;;;;;;;;;;13.15;100.00;97405.47;5118181;28;20608;-64
2023/03/23 10:00:27;;;;;;;;;;;;;;;13.13;100.00;97413.00;5121711;28;19959;-64
2023/03/23 10:02:57;;;;;;;;;;;;;;;13.25;100.00;97408.78;5116640;28;19959;-64
2023/03/23 10:05:30;;;;;;;;;;;;;;;13.29;100.00;97411.69;5119013;28;19923;-65
2023/03/23 10:07:56;;;;;;;;;;;;;;;13.24;100.00;97404.53;5118061;28;20409;-65
2023/03/23 10:10:26;;;;;;;;;;;;;;;13.32;100.00;97411.09;5120772;28;19969;-64
2023/03/23 10:12:56;;;;;;;;;;;;;;;13.40;100.00;97421.16;5121354;28;19961;-64
2023/03/23 10:15:27;;;;;;;;;;;;;;;13.39;100.00;97408.84;5118098;28;20467;-64
2023/03/23 10:17:57;;;;;;;;;;;;;;;13.42;100.00;97405.56;5117916;28;19953;-64
2023/03/23 10:20:32;;;;;;;;;;;;;;;13.36;100.00;97409.44;5120622;28;20453;-64
2023/03/23 10:23:01;;;;;;;;;;;;;;;13.31;100.00;97412.97;5121409;28;19959;-64
2023/03/23 10:25:30;;;;;;;;;;;;;;;13.27;100.00;97401.25;5118292;28;19920;-64
2023/03/23 10:28:01;;;;;;;;;;;;;;;13.40;100.00;97405.09;5117885;28;19924;-64
2023/03/23 10:30:31;;;;;;;;;;;;;;;13.49;100.00;97400.63;5121668;28;19920;-63
2023/03/23 10:33:02;;;;;;;;;;;;;;;13.55;100.00;97402.16;5116770;28;19946;-64
2023/03/23 10:35:31;;;;;;;;;;;;;;;13.64;100.00;97411.09;5118137;28;19943;-64
2023/03/23 10:38:01;;;;;;;;;;;;;;;13.74;100.00;97404.78;5117734;28;19992;-64
2023/03/23 10:40:29;;;;;;;;;;;;;;;13.74;100.00;97392.13;5120692;28;19923;-63
2023/03/23 10:42:57;;;;;;;;;;;;;;;13.93;100.00;97403.59;5121339;28;19950;-63
2023/03/23 10:45:26;;;;;;;;;;;;;;;14.01;100.00;97408.31;5118534;28;19945;-64
2023/03/23 10:47:56;;;;;;;;;;;;;;;14.01;100.00;97400.25;5117580;28;19974;-64
2023/03/23 10:50:24;;;;;;;;;;;;;;;14.14;100.00;97401.34;5101966;28;20403;-64
2023/03/23 10:52:53;;;;;;;;;;;;;;;14.26;100.00;97390.91;5121194;28;20036;-64
2023/03/23 10:55:22;;;;;;;;;;;;;;;14.41;100.00;97392.50;5119092;28;19958;-64
2023/03/23 10:57:59;;;;;;;;;;;;;;;14.51;100.00;97384.25;5117662;28;19924;-65
2023/03/23 11:00:27;;;;;;;;;;;;;;;14.62;100.00;97380.25;5121367;28;20625;-64
2023/03/23 11:03:00;;;;;;;;;;;;;;;14.71;100.00;97391.88;5116030;28;19924;-64
2023/03/23 11:05:28;;;;;;;;;;;;;;;14.73;100.00;97384.28;5100092;28;19930;-64
2023/03/23 11:07:56;;;;;;;;;;;;;;;14.83;100.00;97386.75;5117462;28;19959;-64
2023/03/23 11:10:23;;;;;;;;;;;;;;;14.59;100.00;97388.91;5120090;28;19967;-64
2023/03/23 11:12:50;;;;;;;;;;;;;;;14.87;100.00;97382.38;5121110;28;19973;-64
2023/03/23 11:15:30;;;;;;;;;;;;;;;14.73;100.00;97378.91;5119274;28;19930;-64
2023/03/23 11:18:02;;;;;;;;;;;;;;;14.61;100.00;97384.00;5117441;28;19931;-64
2023/03/23 11:20:30;;;;;;;;;;;;;;;14.77;100.00;97379.91;5120870;28;19962;-65
2023/03/23 11:22:57;;;;;;;;;;;;;;;14.90;100.00;97378.28;5102819;28;19928;-64
2023/03/23 11:25:23;;;;;;;;;;;;;;;14.23;100.00;97378.06;5119523;28;20002;-64
2023/03/23 11:27:50;;;;;;;;;;;;;;;14.17;100.00;97381.16;5120806;28;20560;-64
2023/03/23 11:30:21;;;;;;;;;;;;;;;14.22;100.00;97379.16;5124729;28;19924;-64
2023/03/23 11:32:49;;;;;;;;;;;;;;;14.30;100.00;97385.69;5118592;28;19924;-65
2023/03/23 11:35:19;;;;;;;;;;;;;;;14.61;100.00;97388.63;5122907;28;19979;-65
2023/03/23 11:37:48;;;;;;;;;;;;;;;14.58;100.00;97390.00;5121036;28;19920;-65
2023/03/23 11:40:16;;;;;;;;;;;;;;;14.61;100.00;97373.25;5103818;28;19934;-64
2023/03/23 11:42:44;;;;;;;;;;;;;;;14.60;100.00;97369.00;5124273;28;19935;-64
2023/03/23 11:45:15;;;;;;;;;;;;;;;14.73;100.00;97381.59;5123501;28;19923;-64
2023/03/23 11:47:44;;;;;;;;;;;;;;;14.92;100.00;97376.06;5120845;28;19956;-64
2023/03/23 11:50:13;;;;;;;;;;;;;;;14.86;100.00;97382.66;5121522;28;19920;-64
2023/03/23 11:52:42;;;;;;;;;;;;;;;14.95;100.00;97375.47;5124141;28;19928;-63
2023/03/23 11:55:13;;;;;;;;;;;;;;;14.90;100.00;97379.09;5123327;28;19943;-64
2023/03/23 11:57:39;;;;;;;;;;;;;;;14.86;100.00;97361.97;5120643;28;19928;-64
2023/03/23 12:00:12;;;;;;;;;;;;;;;14.83;100.00;97364.47;5124105;28;19924;-64
2023/03/23 12:02:45;;;;;;;;;;;;;;;15.08;100.00;97370.06;5116967;28;19924;-65
2023/03/23 12:05:29;;;;;;;;;;;;;;;15.01;100.00;97363.50;5104752;28;20024;-64
2023/03/23 12:08:03;;;;;;;;;;;;;;;15.51;100.00;97364.19;5120577;28;19959;-64
2023/03/23 12:10:34;;;;;;;;;;;;;;;15.39;100.00;97370.13;5123761;28;20064;-64
2023/03/23 12:13:11;;;;;;;;;;;;;;;15.14;100.00;97374.22;5123914;28;19932;-63
2023/03/23 12:15:42;;;;;;;;;;;;;;;15.51;100.00;97361.50;5120276;28;19950;-64
2023/03/23 12:18:15;;;;;;;;;;;;;;;15.55;100.00;97362.50;5120693;28;20311;-64
2023/03/23 12:20:48;;;;;;;;;;;;;;;15.72;100.00;97367.97;5123805;28;19991;-64
2023/03/23 12:23:22;;;;;;;;;;;;;;;15.50;100.00;97382.28;5122055;28;20422;-65
2023/03/23 12:25:55;;;;;;;;;;;;;;;15.37;100.00;97361.56;5120111;28;20028;-65
2023/03/23 12:28:27;;;;;;;;;;;;;;;15.53;100.00;97375.47;5122292;28;19925;-64
2023/03/23 12:30:57;;;;;;;;;;;;;;;15.42;100.00;97366.00;5102178;28;19946;-66
2023/03/23 12:33:28;;;;;;;;;;;;;;;15.28;100.00;97384.13;5119905;28;19952;-65
2023/03/23 12:36:01;;;;;;;;;;;;;;;15.39;100.00;97377.38;5119918;28;19931;-65
2023/03/23 12:38:46;;;;;;;;;;;;;;;15.44;100.00;97377.28;5122347;28;19923;-65
2023/03/23 12:41:16;;;;;;;;;;;;;;;15.57;100.00;97371.03;5122145;28;19949;-65
2023/03/23 12:43:49;;;;;;;;;;;;;;;15.70;100.00;97364.78;5119917;28;19924;-65